createdAt,value
2023-02-08T00:02:02.008Z,70.89
2023-02-08T00:05:05.531Z,71.09
2023-02-08T00:08:08.187Z,70.72
2023-02-08T00:11:12.168Z,70.72
2023-02-08T00:14:14.678Z,70.76
2023-02-08T00:17:17.297Z,70.66
2023-02-08T00:20:19.783Z,70.30
2023-02-08T00:23:22.431Z,70.46
2023-02-08T00:26:24.758Z,70.28
2023-02-08T00:29:27.375Z,70.65
2023-02-08T00:32:29.763Z,70.22
2023-02-08T00:35:32.869Z,69.86
2023-02-08T00:38:35.747Z,69.67
2023-02-08T00:41:38.377Z,68.53
2023-02-08T00:44:41.002Z,68.52
2023-02-08T00:47:43.766Z,67.60
2023-02-08T00:50:56.427Z,67.00
2023-02-08T00:53:59.172Z,66.42
2023-02-08T00:57:01.594Z,66.17
2023-02-08T01:00:06.260Z,65.83
2023-02-08T01:03:08.611Z,66.49
2023-02-08T01:06:14.890Z,66.25
2023-02-08T01:09:17.412Z,65.72
2023-02-08T01:12:20.280Z,64.82
2023-02-08T01:15:22.675Z,64.40
2023-02-08T01:18:25.521Z,63.81
2023-02-08T01:21:31.802Z,63.89
2023-02-08T01:24:34.436Z,63.29
2023-02-08T01:27:36.912Z,62.78
2023-02-08T01:30:39.971Z,63.07
2023-02-08T01:33:44.642Z,62.74
2023-02-08T01:36:47.387Z,61.95
2023-02-08T01:39:49.709Z,61.24
2023-02-08T01:42:52.425Z,61.34
2023-02-08T01:45:55.257Z,61.06
2023-02-08T01:49:05.101Z,61.05
2023-02-08T01:52:22.475Z,61.12
2023-02-08T01:55:33.175Z,61.57
2023-02-08T01:58:39.375Z,61.24
2023-02-08T02:01:46.016Z,61.97
2023-02-08T02:04:51.109Z,62.47
2023-02-08T02:07:55.842Z,62.47
2023-02-08T02:10:58.850Z,62.38
2023-02-08T02:14:03.326Z,62.48
2023-02-08T02:17:07.104Z,62.63
2023-02-08T02:20:42.128Z,61.94
2023-02-08T02:23:57.239Z,62.06
2023-02-08T02:27:18.489Z,61.98
2023-02-08T02:30:33.173Z,61.85
2023-02-08T02:33:50.777Z,61.83
2023-02-08T02:37:12.507Z,62.38
2023-02-08T02:40:46.462Z,62.44
2023-02-08T02:43:58.941Z,61.73
2023-02-08T02:47:43.192Z,61.31
2023-02-08T02:50:51.550Z,61.06
2023-02-08T02:54:07.197Z,60.81
2023-02-08T02:57:15.224Z,60.55
2023-02-08T03:00:26.273Z,60.56
2023-02-08T03:03:33.209Z,60.25
2023-02-08T03:07:06.518Z,60.06
2023-02-08T03:10:32.674Z,60.29
2023-02-08T03:13:56.764Z,60.30
2023-02-08T03:17:25.220Z,59.96
2023-02-08T03:20:39.154Z,60.30
2023-02-08T03:24:06.834Z,60.89
2023-02-08T03:27:27.560Z,60.97
2023-02-08T03:31:02.435Z,60.58
2023-02-08T03:34:16.843Z,60.94
2023-02-08T03:37:24.875Z,60.85
2023-02-08T03:40:39.972Z,60.92
2023-02-08T03:43:47.957Z,60.54
2023-02-08T03:46:57.690Z,60.61
2023-02-08T03:50:05.098Z,61.12
2023-02-08T03:53:09.238Z,61.11
2023-02-08T03:56:30.709Z,60.88
2023-02-08T03:59:38.955Z,60.74
2023-02-08T04:02:48.893Z,60.68
2023-02-08T04:05:51.971Z,60.59
2023-02-08T04:08:54.298Z,60.80
2023-02-08T04:11:57.021Z,60.55
2023-02-08T04:14:59.358Z,60.50
2023-02-08T04:18:01.982Z,60.67
2023-02-08T04:21:04.957Z,60.53
2023-02-08T04:24:07.844Z,60.51
2023-02-08T04:27:10.164Z,60.54
2023-02-08T04:30:13.361Z,60.34
2023-02-08T04:33:15.769Z,60.22
2023-02-08T04:36:18.650Z,60.72
2023-02-08T04:39:21.091Z,60.43
2023-02-08T04:42:23.856Z,60.50
2023-02-08T04:45:27.094Z,60.40
2023-02-08T04:48:30.130Z,59.90
2023-02-08T04:51:32.422Z,60.36
2023-02-08T04:54:35.176Z,60.19
2023-02-08T04:57:37.592Z,59.84
2023-02-08T05:00:40.644Z,59.83
2023-02-08T05:03:43.250Z,59.95
2023-02-08T05:06:48.307Z,60.06
2023-02-08T05:09:50.806Z,60.15
2023-02-08T05:12:53.696Z,60.48
2023-02-08T05:15:56.282Z,60.50
2023-02-08T05:18:58.950Z,60.57
2023-02-08T05:22:01.355Z,60.65
2023-02-08T05:25:04.183Z,60.83
2023-02-08T05:28:06.635Z,60.50
2023-02-08T05:31:20.589Z,60.89
2023-02-08T05:34:22.959Z,60.69
2023-02-08T05:37:25.730Z,60.89
2023-02-08T05:40:28.308Z,60.97
2023-02-08T05:43:31.001Z,60.88
2023-02-08T05:46:33.360Z,60.92
2023-02-08T05:49:36.084Z,61.45
2023-02-08T05:52:38.416Z,61.54
2023-02-08T05:55:45.428Z,61.88
2023-02-08T05:58:48.303Z,61.70
2023-02-08T06:01:50.937Z,61.83
2023-02-08T06:04:53.521Z,61.73
2023-02-08T06:07:55.906Z,62.35
2023-02-08T06:10:58.545Z,62.30
2023-02-08T06:14:00.926Z,62.44
2023-02-08T06:17:03.693Z,62.39
2023-02-08T06:20:06.721Z,62.34
2023-02-08T06:23:09.383Z,62.47
2023-02-08T06:26:11.768Z,62.36
2023-02-08T06:29:14.416Z,62.48
2023-02-08T06:32:16.917Z,62.46
2023-02-08T06:35:19.994Z,62.67
2023-02-08T06:38:22.577Z,62.44
2023-02-08T06:41:25.232Z,62.43
2023-02-08T06:44:27.740Z,62.42
2023-02-08T06:47:30.450Z,62.45
2023-02-08T06:50:32.868Z,62.54
2023-02-08T06:53:35.490Z,62.36
2023-02-08T06:56:37.849Z,62.06
2023-02-08T06:59:41.191Z,61.78
2023-02-08T07:02:43.533Z,61.31
2023-02-08T07:06:02.520Z,60.62
2023-02-08T07:09:06.838Z,60.67
2023-02-08T07:12:10.333Z,60.90
2023-02-08T07:15:13.733Z,60.60
2023-02-08T07:18:16.339Z,60.43
2023-02-08T07:21:18.761Z,60.54
2023-02-08T07:24:21.721Z,60.24
2023-02-08T07:27:25.993Z,60.19
2023-02-08T07:30:28.865Z,59.85
2023-02-08T07:33:31.363Z,59.95
2023-02-08T07:36:35.839Z,58.97
2023-02-08T07:39:38.234Z,59.65
2023-02-08T07:42:40.938Z,59.03
2023-02-08T07:45:44.030Z,59.24
2023-02-08T07:48:49.245Z,59.10
2023-02-08T07:51:51.620Z,58.90
2023-02-08T07:54:54.303Z,58.28
2023-02-08T07:57:57.309Z,58.40
2023-02-08T08:01:04.883Z,58.59
2023-02-08T08:04:15.128Z,57.64
2023-02-08T08:07:17.457Z,57.17
2023-02-08T08:10:20.103Z,56.90
2023-02-08T08:13:22.464Z,56.74
2023-02-08T08:16:25.213Z,56.45
2023-02-08T08:19:28.563Z,56.05
2023-02-08T08:22:31.384Z,56.29
2023-02-08T08:25:33.925Z,55.91
2023-02-08T08:28:37.613Z,55.00
2023-02-08T08:31:40.089Z,55.08
2023-02-08T08:34:42.776Z,54.68
2023-02-08T08:37:45.319Z,54.62
2023-02-08T08:40:47.934Z,54.48
2023-02-08T08:43:50.336Z,54.01
2023-02-08T08:46:56.871Z,53.63
2023-02-08T08:49:59.253Z,53.67
2023-02-08T08:53:02.319Z,53.68
2023-02-08T08:56:05.594Z,52.76
2023-02-08T08:59:08.332Z,52.00
2023-02-08T09:02:12.889Z,52.28
2023-02-08T09:05:15.581Z,52.45
2023-02-08T09:08:18.249Z,52.10
2023-02-08T09:11:21.120Z,52.38
2023-02-08T09:14:23.630Z,53.00
2023-02-08T09:17:26.325Z,52.91
2023-02-08T09:20:28.729Z,52.94
2023-02-08T09:23:31.555Z,52.73
2023-02-08T09:26:34.108Z,52.62
2023-02-08T09:29:36.789Z,53.05
2023-02-08T09:32:40.013Z,53.45
2023-02-08T09:35:42.998Z,53.60
2023-02-08T09:38:49.396Z,53.42
2023-02-08T09:42:26.847Z,53.03
2023-02-08T09:45:36.729Z,52.65
2023-02-08T09:48:41.162Z,51.70
2023-02-08T09:52:02.785Z,51.75
2023-02-08T09:55:34.343Z,51.87
2023-02-08T09:58:49.996Z,52.01
2023-02-08T10:01:59.400Z,52.28
2023-02-08T10:05:10.104Z,51.61
2023-02-08T10:08:12.610Z,51.62
2023-02-08T10:11:46.457Z,51.22
2023-02-08T10:15:16.645Z,50.73
2023-02-08T10:18:31.201Z,50.22
2023-02-08T10:21:40.355Z,49.93
2023-02-08T10:25:10.393Z,50.42
2023-02-08T10:28:39.476Z,50.60
2023-02-08T10:31:51.284Z,51.19
2023-02-08T10:35:02.616Z,50.65
2023-02-08T10:38:23.393Z,50.85
2023-02-08T10:41:34.305Z,50.95
2023-02-08T10:45:00.557Z,50.64
2023-02-08T10:48:10.500Z,50.00
2023-02-08T10:51:22.261Z,50.24
2023-02-08T10:54:24.822Z,50.76
2023-02-08T10:57:34.091Z,50.87
2023-02-08T11:00:40.170Z,50.14
2023-02-08T11:04:02.093Z,50.32
2023-02-08T11:07:20.353Z,50.68
2023-02-08T11:10:25.217Z,50.22
2023-02-08T11:13:38.282Z,50.00
2023-02-08T11:16:41.688Z,49.77
2023-02-08T11:19:46.418Z,49.47
2023-02-08T11:22:49.382Z,49.72
2023-02-08T11:25:52.231Z,49.29
2023-02-08T11:29:21.568Z,48.90
2023-02-08T11:32:23.875Z,48.70
2023-02-08T11:35:27.015Z,48.57
2023-02-08T11:38:33.004Z,49.32
2023-02-08T11:41:37.726Z,49.40
2023-02-08T11:44:44.537Z,48.12
2023-02-08T11:47:48.642Z,48.19
2023-02-08T11:50:58.169Z,48.42
2023-02-08T11:54:02.298Z,48.35
2023-02-08T11:57:22.655Z,48.91
2023-02-08T12:00:32.101Z,48.89
2023-02-08T12:03:40.077Z,48.08
2023-02-08T12:07:05.025Z,47.48
2023-02-08T12:10:48.228Z,48.19
2023-02-08T12:14:08.508Z,48.06
2023-02-08T12:17:13.869Z,46.12
2023-02-08T12:20:42.020Z,46.50
2023-02-08T12:23:53.517Z,45.74
2023-02-08T12:27:27.383Z,45.87
2023-02-08T12:30:30.427Z,45.82
2023-02-08T12:33:50.332Z,46.82
2023-02-08T12:37:29.744Z,47.63
2023-02-08T12:40:55.282Z,47.57
2023-02-08T12:44:11.213Z,47.40
2023-02-08T12:47:25.745Z,47.01
2023-02-08T12:50:31.500Z,45.62
2023-02-08T12:53:40.126Z,44.89
2023-02-08T12:56:56.907Z,44.76
2023-02-08T13:00:15.720Z,44.79
2023-02-08T13:03:37.027Z,44.44
2023-02-08T13:06:44.856Z,43.87
2023-02-08T13:10:03.476Z,43.66
2023-02-08T13:13:18.202Z,44.95
2023-02-08T13:16:27.605Z,44.91
2023-02-08T13:19:37.024Z,45.13
2023-02-08T13:22:42.262Z,45.42
2023-02-08T13:25:45.877Z,45.87
2023-02-08T13:28:52.320Z,46.15
2023-02-08T13:31:59.982Z,46.32
2023-02-08T13:35:24.304Z,45.93
2023-02-08T13:38:34.950Z,45.81
2023-02-08T13:41:39.368Z,46.17
2023-02-08T13:44:41.827Z,46.96
2023-02-08T13:47:48.712Z,47.08
2023-02-08T13:50:53.946Z,46.36
2023-02-08T13:53:57.234Z,46.06
2023-02-08T13:56:59.872Z,45.86
2023-02-08T14:00:24.220Z,45.16
2023-02-08T14:03:29.287Z,45.48
2023-02-08T14:06:33.342Z,45.99
2023-02-08T14:10:02.724Z,45.57
2023-02-08T14:13:21.768Z,45.76
2023-02-08T14:16:39.720Z,45.95
2023-02-08T14:19:44.468Z,45.47
2023-02-08T14:22:53.693Z,44.83
2023-02-08T14:25:58.772Z,44.62
2023-02-08T14:29:05.025Z,44.50
2023-02-08T14:32:07.738Z,44.28
2023-02-08T14:35:13.264Z,44.77
2023-02-08T14:38:24.434Z,44.66
2023-02-08T14:41:42.236Z,45.11
2023-02-08T14:44:48.985Z,45.37
2023-02-08T14:47:55.845Z,45.74
2023-02-08T14:51:10.351Z,45.85
2023-02-08T14:54:32.720Z,45.91
2023-02-08T14:57:36.834Z,46.08
2023-02-08T15:00:40.168Z,46.11
2023-02-08T15:03:43.601Z,46.21
2023-02-08T15:07:01.882Z,45.91
2023-02-08T15:10:06.685Z,45.74
2023-02-08T15:13:24.228Z,45.61
2023-02-08T15:16:33.801Z,45.89
2023-02-08T15:19:39.243Z,45.93
2023-02-08T15:22:41.773Z,46.17
2023-02-08T15:25:53.679Z,46.31
2023-02-08T15:29:00.275Z,46.63
2023-02-08T15:32:03.139Z,47.12
2023-02-08T15:35:05.823Z,47.42
2023-02-08T15:38:19.241Z,47.52
2023-02-08T15:41:30.781Z,47.30
2023-02-08T15:44:35.032Z,47.75
2023-02-08T15:47:39.971Z,47.71
2023-02-08T15:50:43.050Z,47.46
2023-02-08T15:53:48.811Z,47.16
2023-02-08T15:57:32.620Z,46.81
2023-02-08T16:00:37.426Z,46.36
2023-02-08T16:03:40.333Z,47.00
2023-02-08T16:06:55.814Z,47.67
2023-02-08T16:09:58.956Z,47.63
2023-02-08T16:13:05.174Z,47.85
2023-02-08T16:16:23.096Z,48.25
2023-02-08T16:19:30.728Z,48.21
2023-02-08T16:22:33.642Z,48.36
2023-02-08T16:25:44.676Z,48.28
2023-02-08T16:29:21.410Z,48.17
2023-02-08T16:32:36.992Z,48.22
2023-02-08T16:35:40.263Z,48.51
2023-02-08T16:38:42.819Z,48.60
2023-02-08T16:42:06.420Z,48.63
2023-02-08T16:45:18.885Z,48.21
2023-02-08T16:48:33.458Z,48.28
2023-02-08T16:51:37.838Z,48.51
2023-02-08T16:54:40.714Z,48.22
2023-02-08T16:57:45.995Z,47.87
2023-02-08T17:00:48.662Z,47.98
2023-02-08T17:03:53.053Z,48.14
2023-02-08T17:06:55.919Z,48.01
2023-02-08T17:09:58.247Z,48.05
2023-02-08T17:13:18.734Z,47.88
2023-02-08T17:16:25.104Z,48.42
2023-02-08T17:19:27.698Z,48.38
2023-02-08T17:22:30.110Z,48.41
2023-02-08T17:25:33.988Z,48.71
2023-02-08T17:28:38.580Z,48.95
2023-02-08T17:31:41.452Z,49.10
2023-02-08T17:34:43.984Z,48.96
2023-02-08T17:37:49.520Z,49.18
2023-02-08T17:40:51.907Z,49.28
2023-02-08T17:43:56.351Z,49.60
2023-02-08T17:46:58.840Z,49.72
2023-02-08T17:50:01.649Z,49.87
2023-02-08T17:53:04.149Z,50.10
2023-02-08T17:56:11.456Z,50.41
2023-02-08T17:59:14.015Z,50.62
2023-02-08T18:02:17.038Z,50.81
2023-02-08T18:05:25.598Z,50.91
2023-02-08T18:08:28.625Z,50.96
2023-02-08T18:11:31.323Z,51.14
2023-02-08T18:14:34.921Z,51.59
2023-02-08T18:17:39.909Z,51.67
2023-02-08T18:20:46.292Z,51.91
2023-02-08T18:23:50.026Z,51.90
2023-02-08T18:26:52.394Z,51.99
2023-02-08T18:29:55.114Z,52.26
2023-02-08T18:32:57.498Z,52.30
2023-02-08T18:36:00.215Z,52.67
2023-02-08T18:39:02.755Z,52.76
2023-02-08T18:42:05.744Z,52.96
2023-02-08T18:45:09.106Z,53.03
2023-02-08T18:48:12.591Z,53.25
2023-02-08T18:51:18.708Z,53.41
2023-02-08T18:54:21.553Z,53.58
2023-02-08T18:57:23.926Z,53.79
2023-02-08T19:00:27.246Z,54.06
2023-02-08T19:03:29.576Z,54.11
2023-02-08T19:06:35.766Z,54.51
2023-02-08T19:09:39.191Z,54.32
2023-02-08T19:12:42.198Z,54.47
2023-02-08T19:15:45.697Z,54.54
2023-02-08T19:18:49.218Z,54.86
2023-02-08T19:21:51.615Z,55.26
2023-02-08T19:24:54.351Z,55.23
2023-02-08T19:27:57.058Z,55.61
2023-02-08T19:31:23.060Z,55.83
2023-02-08T19:34:25.978Z,55.85
2023-02-08T19:37:28.558Z,55.75
2023-02-08T19:40:31.215Z,55.95
2023-02-08T19:43:34.332Z,56.13
2023-02-08T19:46:38.867Z,56.43
2023-02-08T19:49:41.563Z,56.31
2023-02-08T19:52:43.898Z,56.36
2023-02-08T19:55:55.884Z,56.81
2023-02-08T19:58:58.288Z,56.73
2023-02-08T20:02:01.731Z,57.11
2023-02-08T20:05:04.767Z,57.36
2023-02-08T20:08:07.121Z,57.52
2023-02-08T20:11:18.940Z,57.34
2023-02-08T20:14:21.268Z,57.31
2023-02-08T20:17:24.222Z,57.64
2023-02-08T20:20:26.626Z,57.44
2023-02-08T20:23:31.432Z,57.53
2023-02-08T20:26:33.882Z,57.39
2023-02-08T20:29:36.623Z,57.45
2023-02-08T20:32:40.119Z,57.63
2023-02-08T20:35:42.979Z,57.78
2023-02-08T20:38:45.651Z,57.78
2023-02-08T20:41:48.435Z,57.90
2023-02-08T20:44:50.775Z,57.99
2023-02-08T20:47:53.653Z,58.25
2023-02-08T20:50:56.157Z,58.19
2023-02-08T20:54:00.449Z,58.96
2023-02-08T20:57:03.065Z,58.90
2023-02-08T21:00:06.186Z,58.97
2023-02-08T21:03:08.647Z,59.06
2023-02-08T21:06:15.495Z,58.66
2023-02-08T21:09:19.136Z,58.91
2023-02-08T21:12:21.893Z,58.94
2023-02-08T21:15:24.733Z,58.97
2023-02-08T21:18:27.398Z,58.87
2023-02-08T21:21:30.009Z,59.01
2023-02-08T21:24:33.225Z,59.08
2023-02-08T21:27:35.698Z,59.36
2023-02-08T21:30:38.830Z,59.04
2023-02-08T21:33:42.690Z,59.10
2023-02-08T21:36:46.061Z,59.87
2023-02-08T21:39:48.470Z,60.25
2023-02-08T21:42:51.216Z,60.03
2023-02-08T21:45:53.563Z,59.92
2023-02-08T21:49:16.347Z,59.70
2023-02-08T21:52:37.450Z,59.67
2023-02-08T21:55:46.469Z,59.68
2023-02-08T21:58:48.890Z,59.85
2023-02-08T22:01:51.668Z,59.84
2023-02-08T22:04:56.609Z,60.94
2023-02-08T22:07:59.508Z,60.96
2023-02-08T22:11:04.820Z,61.48
2023-02-08T22:14:07.446Z,63.23
2023-02-08T22:17:11.046Z,62.39
2023-02-08T22:20:15.330Z,62.68
2023-02-08T22:23:18.100Z,62.58
2023-02-08T22:26:20.611Z,62.58
2023-02-08T22:29:23.386Z,62.64
2023-02-08T22:32:25.884Z,62.71
2023-02-08T22:35:28.709Z,63.30
2023-02-08T22:38:31.197Z,63.13
2023-02-08T22:41:33.939Z,62.91
2023-02-08T22:44:36.568Z,63.05
2023-02-08T22:47:39.509Z,63.06
2023-02-08T22:50:41.889Z,62.97
2023-02-08T22:53:45.123Z,62.73
2023-02-08T22:56:47.520Z,62.93
2023-02-08T22:59:50.236Z,63.36
2023-02-08T23:02:52.684Z,63.57
2023-02-08T23:05:55.516Z,63.24
2023-02-08T23:08:58.569Z,63.59
2023-02-08T23:12:01.388Z,64.18
2023-02-08T23:15:04.315Z,64.35
2023-02-08T23:18:08.307Z,64.27
2023-02-08T23:21:14.407Z,65.92
2023-02-08T23:24:17.086Z,66.27
2023-02-08T23:27:19.487Z,65.49
2023-02-08T23:30:22.346Z,65.21
2023-02-08T23:33:24.930Z,65.08
2023-02-08T23:36:27.942Z,65.46
2023-02-08T23:39:33.892Z,65.48
2023-02-08T23:42:36.585Z,65.54
2023-02-08T23:45:38.937Z,65.60
2023-02-08T23:48:41.765Z,65.80
2023-02-08T23:51:44.664Z,65.58
2023-02-08T23:54:47.940Z,65.67
2023-02-08T23:57:50.356Z,65.71
